Flight Track Log - Related Links

Times and Time Zones

All times are in EDT time to prevent confusion due to time zone crossing. See the GJS6252 flight status page for this flight to view local times or setup timezone preferences in your user account.

Time Position Orientation Groundspeed Altitude Reporting Facility
EDT Latitude Longitude Course Direction KTS MPH feet Rate Location/Type
Thu 06:13:44 AM 44.2486 -73.1850 195° South 290 334 9,100  Level Boston Center
Thu 06:14:56 AM 44.1711 -73.2186 197° South 295 339 11,400 2,091 Climbing Boston Center
Thu 06:15:56 AM 44.0625 -73.2633 196° South 324 373 13,700 2,150 Climbing Boston Center
Thu 06:16:00 AM 43.9159 -73.3603 196° South  Level FlightAware Approximate
Thu 06:16:56 AM 43.9683 -73.3056 198° South 350 403 15,700  Level Boston Center
Thu 06:17:00 AM 43.8240 -73.3953 195° South  Level FlightAware Approximate
Thu 06:18:00 AM 43.7320 -73.4299 195° South  Level FlightAware Approximate
Thu 06:18:08 AM 43.8578 -73.3500 196° South 373 429 18,400  Level Boston Center
Thu 06:19:08 AM 43.7342 -73.4028 197° South 383 441 21,100 2,500 Climbing Boston Center
Thu 06:20:20 AM 43.6192 -73.4467 195° South 374 430 23,900 2,091 Climbing Boston Center
Thu 06:21:20 AM 43.5189 -73.4908 198° South 374 430 25,700 1,050 Climbing Boston Center
Thu 06:22:20 AM 43.4144 -73.5292 195° South 381 438 26,000 150 Climbing Boston Center
Thu 06:23:20 AM 43.3056 -73.5756 197° South 398 458 26,000  Level Boston Center
Thu 06:24:20 AM 43.1925 -73.6219 197° South 414 476 26,000  Level Boston Center
Thu 06:25:20 AM 43.0919 -73.6656 198° South 419 482 26,000 -50 Level Boston Center
Thu 06:26:20 AM 42.9831 -73.7086 196° South 419 482 25,900 -600 Descending Boston Center
Thu 06:27:20 AM 42.8722 -73.7547 197° South 419 482 24,800 -950 Descending Boston Center
Thu 06:28:20 AM 42.7611 -73.7975 196° South 419 482 24,000 -600 Descending Boston Center
Thu 06:29:20 AM 42.6425 -73.7864 176° South 412 474 23,600 -850 Descending Boston Center
Thu 06:30:20 AM 42.5239 -73.7614 171° South 419 482 22,300 -773 Descending Boston Center
Thu 06:31:32 AM 42.4075 -73.7364 171° South 424 488 21,900 -864 Descending Boston Center
Thu 06:32:32 AM 42.2683 -73.7083 172° South 424 488 20,400 -1,300 Descending Boston Center
Thu 06:33:32 AM 42.1622 -73.6808 169° South 418 481 19,300 -700 Descending Boston Center
Thu 06:34:32 AM 42.0519 -73.6703 176° South 385 443 19,000 -150 Descending Boston Center
Thu 06:35:32 AM 42.0158 -73.7367 234° Southwest 295 339 19,000 -350 Level Boston Center
Thu 06:36:32 AM 41.9539 -73.8583 236° Southwest 304 350 18,300 -1,100 Descending Boston Center
Thu 06:37:32 AM 41.8619 -73.8728 187° South 311 358 16,800 -1,500 Descending Boston Center
Thu 06:38:32 AM 41.7642 -73.8650 177° South 329 379 15,300 -1,600 Descending Boston Center
Thu 06:39:32 AM 41.6767 -73.8492 172° South 351 404 13,600 -1,748 Descending Boston Center
Thu 06:40:39 AM 41.5667 -73.8333 174° South 344 396 11,600 -1,587 Descending New York TRACON
Thu 06:41:33 AM 41.4833 -73.8167 171° South 318 366 10,400 -1,263 Descending New York TRACON
Thu 06:42:33 AM 41.4000 -73.8167 180° South 291 335 9,200 -650 Descending New York TRACON
Thu 06:43:33 AM 41.3167 -73.7833 163° South 306 352 9,100 -500 Descending New York TRACON
Thu 06:44:33 AM 41.2500 -73.7167 143° Southeast 318 366 8,200 -1,095 Descending New York TRACON
Thu 06:45:39 AM 41.1667 -73.6500 149° Southeast 300 345 6,800 -1,381 Descending New York TRACON
Thu 06:46:39 AM 41.1000 -73.6333 169° South 290 334 5,300 -1,350 Descending New York TRACON
Thu 06:47:39 AM 41.0333 -73.6667 201° Southwest 260 299 4,100 -762 Descending New York TRACON
Thu 06:48:45 AM 40.9500 -73.7333 211° Southwest 264 304 3,700 -600 Descending New York TRACON
Thu 06:49:39 AM 40.9000 -73.7667 207° Southwest 269 310 2,900 -1,158 Descending New York TRACON
Thu 06:50:39 AM 40.8500 -73.8167 217° Southwest 229 264 1,500 -1,158 Descending New York TRACON
Thu 06:51:33 AM 40.8167 -73.8500 217° Southwest 154 177 700 -889 Descending New York TRACON
Thu 06:53:00 AM 40.7772 -73.8726 180° South  Level Estimated
Thu 07:00:00 AM 40.7772 -73.8726 180° South  Level Estimated

Login

Don't have an account? Register now (free) for customized features, flight alerts, and more!